createdAt,value
2022-10-07T03:03:06.396Z,3.30
2022-10-07T03:08:09.882Z,3.30
2022-10-07T03:13:11.563Z,3.30
2022-10-07T03:18:14.593Z,3.40
2022-10-07T03:23:16.281Z,3.30
2022-10-07T03:28:18.372Z,3.40
2022-10-07T03:33:22.201Z,3.40
2022-10-07T03:38:23.897Z,3.60
2022-10-07T03:43:25.667Z,3.80
2022-10-07T03:48:28.987Z,3.90
2022-10-07T04:00:00.255Z,4.20
2022-10-07T04:05:24.334Z,4.30
2022-10-07T04:10:26.318Z,4.30
2022-10-07T04:15:37.767Z,4.30
2022-10-07T04:20:41.384Z,4.30
2022-10-07T04:25:43.798Z,4.30
2022-10-07T04:30:45.982Z,4.20
2022-10-07T04:35:49.635Z,4.00
2022-10-07T04:40:51.324Z,3.80
2022-10-07T04:51:34.280Z,3.70
2022-10-07T04:56:35.965Z,3.80
2022-10-07T05:01:37.793Z,3.80
2022-10-07T05:06:40.994Z,4.00
2022-10-07T05:11:42.814Z,4.20
2022-10-07T05:16:44.637Z,4.40
2022-10-07T05:21:47.776Z,4.60
2022-10-07T05:26:50.620Z,4.80
2022-10-07T05:31:52.411Z,4.80
2022-10-07T05:36:55.705Z,5.00
2022-10-07T05:41:57.503Z,5.10
2022-10-07T05:46:59.334Z,5.20
2022-10-07T05:52:02.655Z,5.30
2022-10-07T05:57:04.447Z,5.40
2022-10-07T06:02:06.545Z,5.40
2022-10-07T06:07:11.505Z,5.50
2022-10-07T06:12:13.307Z,5.50
2022-10-07T06:17:15.226Z,5.70
2022-10-07T06:22:18.386Z,5.70
2022-10-07T06:27:20.641Z,5.80
2022-10-07T06:32:22.383Z,5.90
2022-10-07T06:37:25.507Z,6.00
2022-10-07T06:42:27.247Z,6.20
2022-10-07T06:47:28.939Z,6.40
2022-10-07T06:52:32.050Z,6.60
2022-10-07T06:57:45.366Z,6.80
2022-10-07T07:02:47.691Z,7.00
2022-10-07T07:07:50.934Z,7.00
2022-10-07T07:12:53.226Z,7.10
2022-10-07T07:17:54.950Z,6.90
2022-10-07T07:22:58.178Z,7.00
2022-10-07T07:28:00.197Z,7.10
2022-10-07T07:33:01.996Z,7.20
2022-10-07T07:38:05.383Z,7.20
2022-10-07T07:43:07.503Z,7.50
2022-10-07T07:48:09.287Z,7.70
2022-10-07T07:53:12.358Z,7.80
2022-10-07T07:58:14.045Z,7.90
2022-10-07T08:03:15.816Z,8.00
2022-10-07T08:08:54.101Z,8.10
2022-10-07T08:19:10.824Z,8.50
2022-10-07T08:24:13.969Z,8.70
2022-10-07T08:29:16.190Z,8.90
2022-10-07T08:34:18.356Z,9.10
2022-10-07T08:39:21.618Z,9.30
2022-10-07T08:44:27.575Z,9.50
2022-10-07T08:50:00.041Z,9.70
2022-10-07T08:55:14.024Z,9.90
2022-10-07T09:00:20.103Z,10.20
2022-10-07T09:05:27.894Z,10.50
2022-10-07T09:10:34.273Z,10.90
2022-10-07T09:15:41.549Z,11.30
2022-10-07T09:20:48.742Z,11.70
2022-10-07T09:25:52.340Z,12.00
2022-10-07T09:30:54.298Z,12.30
2022-10-07T09:35:58.156Z,12.70
2022-10-07T09:41:10.229Z,13.00
2022-10-07T09:46:36.381Z,13.20
2022-10-07T09:51:38.148Z,13.50
2022-10-07T09:56:50.857Z,13.80
2022-10-07T10:01:57.730Z,14.00
2022-10-07T10:07:04.509Z,14.10
2022-10-07T10:12:15.468Z,14.00
2022-10-07T10:17:30.592Z,14.00
2022-10-07T10:22:32.312Z,14.30
2022-10-07T10:27:44.298Z,14.60
2022-10-07T10:33:06.221Z,14.70
2022-10-07T10:38:25.398Z,14.90
2022-10-07T10:43:33.944Z,15.00
2022-10-07T10:48:43.039Z,15.20
2022-10-07T10:53:54.201Z,15.40
2022-10-07T10:59:23.389Z,15.60
2022-10-07T11:04:41.727Z,15.50
2022-10-07T11:09:48.256Z,15.50
2022-10-07T11:15:32.241Z,15.50
2022-10-07T11:20:49.294Z,15.80
2022-10-07T11:31:38.501Z,16.00
2022-10-07T11:36:47.616Z,16.00
2022-10-07T11:41:56.095Z,16.20
2022-10-07T11:47:03.033Z,16.40
2022-10-07T11:52:08.250Z,16.50
2022-10-07T11:57:20.627Z,16.70
2022-10-07T12:02:45.787Z,16.80
2022-10-07T12:08:05.611Z,16.90
2022-10-07T12:13:36.736Z,17.20
2022-10-07T12:19:23.271Z,17.30
2022-10-07T12:24:26.869Z,17.70
2022-10-07T12:29:33.042Z,17.90
2022-10-07T12:35:15.730Z,18.20
2022-10-07T12:40:34.400Z,18.30
2022-10-07T12:45:40.621Z,18.50
2022-10-07T12:50:44.263Z,18.30
2022-10-07T12:55:50.490Z,18.20
2022-10-07T13:01:09.205Z,18.00
2022-10-07T13:06:50.924Z,17.90
2022-10-07T13:12:33.388Z,17.70
2022-10-07T13:17:43.807Z,17.80
2022-10-07T13:22:46.961Z,18.00
2022-10-07T13:27:54.578Z,18.10
2022-10-07T13:33:11.343Z,17.80
2022-10-07T13:38:23.875Z,17.70
2022-10-07T13:43:28.560Z,17.70
2022-10-07T13:48:34.295Z,17.60
2022-10-07T13:53:37.385Z,17.50
2022-10-07T13:58:40.640Z,17.50
2022-10-07T14:04:09.035Z,17.50
2022-10-07T14:09:18.291Z,17.50
2022-10-07T14:14:23.665Z,17.50
2022-10-07T14:19:27.903Z,17.40
2022-10-07T14:24:30.860Z,17.40
2022-10-07T14:29:37.307Z,17.50
2022-10-07T14:34:43.971Z,17.40
2022-10-07T14:39:47.645Z,17.30
2022-10-07T14:44:51.747Z,17.30
2022-10-07T14:49:55.069Z,17.20
2022-10-07T14:54:58.646Z,17.10
2022-10-07T15:00:01.880Z,17.00
2022-10-07T15:05:04.078Z,16.90
2022-10-07T15:10:20.933Z,16.80
2022-10-07T15:15:24.196Z,16.80
2022-10-07T15:25:58.738Z,16.80
2022-10-07T15:53:19.523Z,16.00
2022-10-07T15:58:23.972Z,15.90
2022-10-07T16:14:52.704Z,15.50
2022-10-07T16:20:00.735Z,15.40
2022-10-07T16:25:02.732Z,15.20
2022-10-07T16:35:42.768Z,14.70
2022-10-07T16:40:51.865Z,14.40
2022-10-07T16:51:19.706Z,13.90
2022-10-07T16:56:23.100Z,13.70
2022-10-07T17:01:29.696Z,13.30
2022-10-07T17:06:32.508Z,13.10
2022-10-07T17:11:36.532Z,12.90
2022-10-07T17:16:42.000Z,12.70
2022-10-07T17:21:44.950Z,12.40
2022-10-07T17:26:47.575Z,12.20
2022-10-07T17:31:50.935Z,12.10
2022-10-07T17:36:52.944Z,12.00
2022-10-07T17:41:54.730Z,11.90
2022-10-07T17:46:58.172Z,11.60
2022-10-07T17:52:08.408Z,11.40
2022-10-07T18:02:43.625Z,11.20
2022-10-07T18:07:45.785Z,11.00
2022-10-07T18:12:47.676Z,10.90
2022-10-07T18:17:52.085Z,10.90
2022-10-07T18:22:54.659Z,10.80
2022-10-07T18:27:56.399Z,10.80
2022-10-07T18:33:00.337Z,10.80
2022-10-07T18:38:06.759Z,10.70
2022-10-07T18:43:08.548Z,10.70
2022-10-07T18:48:28.080Z,10.60
2022-10-07T18:58:48.345Z,10.80
2022-10-07T19:04:13.196Z,10.80
2022-10-07T19:09:16.850Z,10.90
2022-10-07T19:14:20.537Z,11.10
2022-10-07T19:19:49.568Z,11.10
2022-10-07T19:24:51.359Z,11.20
2022-10-07T19:29:53.145Z,11.20
2022-10-07T19:35:04.365Z,11.10
2022-10-07T19:40:07.060Z,11.10
2022-10-07T19:45:09.767Z,11.10
2022-10-07T19:50:12.900Z,11.10
2022-10-07T19:55:14.867Z,11.00
2022-10-07T20:00:27.685Z,10.90
2022-10-07T20:05:30.892Z,10.90
2022-10-07T20:16:02.109Z,10.80
2022-10-07T20:21:07.416Z,10.70
2022-10-07T20:26:11.409Z,10.60
2022-10-07T20:31:45.612Z,10.50
2022-10-07T20:36:49.052Z,10.40
2022-10-07T20:41:51.762Z,10.30
2022-10-07T20:46:53.598Z,10.30
2022-10-07T20:51:59.085Z,10.30
2022-10-07T20:57:11.216Z,10.30
2022-10-07T21:02:29.895Z,10.20
2022-10-07T21:07:33.136Z,10.10
2022-10-07T21:12:34.998Z,10.00
